Time;durP1;ratioP1;P1;durP2;ratioP2;P2;SDS_P1;SDS_P2;PMS_P1;PMS_P2;Temp;Humidity;BMP_temperature;BMP_pressure;BME280_temperature;BME280_humidity;BME280_pressure;Samples;Min_cycle;Max_cycle;Signal;HPM_P1;HPM_P2
2021/09/29 00:01:56;;;;;;;;;;;;;;;20.79;80.21;100934.22;7289886;19;151642;-53
2021/09/29 00:04:23;;;;;;;;;;;;;;;20.79;80.05;100951.09;7295322;19;152649;-52
2021/09/29 00:06:50;;;;;;;;;;;;;;;20.79;80.11;100948.28;7287663;19;151905;-52
2021/09/29 00:09:17;;;;;;;;;;;;;;;20.77;80.24;100936.50;7288839;19;153521;-53
2021/09/29 00:11:44;;;;;;;;;;;;;;;20.77;79.99;100950.53;7288393;19;154015;-53
2021/09/29 00:14:11;;;;;;;;;;;;;;;20.76;80.35;100951.69;7289046;19;151905;-53
2021/09/29 00:16:38;;;;;;;;;;;;;;;20.76;80.26;100948.88;7289238;19;153334;-53
2021/09/29 00:19:05;;;;;;;;;;;;;;;20.75;80.43;100937.97;7286853;19;153278;-52
2021/09/29 00:21:32;;;;;;;;;;;;;;;20.76;80.19;100936.81;7287981;19;151695;-52
2021/09/29 00:23:59;;;;;;;;;;;;;;;20.76;80.48;100928.38;7288426;19;152645;-52
2021/09/29 00:26:26;;;;;;;;;;;;;;;20.75;80.14;100938.81;7296325;19;153913;-52
2021/09/29 00:28:53;;;;;;;;;;;;;;;20.76;80.43;100945.22;7285985;19;152694;-53
2021/09/29 00:33:57;;;;;;;;;;;;;;;20.73;80.54;100946.69;7289106;19;151870;-50
2021/09/29 00:36:26;;;;;;;;;;;;;;;20.78;80.31;100943.78;7287043;19;153516;-56
2021/09/29 00:38:53;;;;;;;;;;;;;;;20.77;80.39;100944.94;7286255;19;154423;-50
2021/09/29 00:41:20;;;;;;;;;;;;;;;20.73;80.51;100957.94;7284637;19;151993;-51
2021/09/29 00:43:47;;;;;;;;;;;;;;;20.74;80.50;100959.59;7286229;19;152863;-50
2021/09/29 00:46:14;;;;;;;;;;;;;;;20.72;80.13;100970.28;7287245;19;152400;-51
2021/09/29 00:48:41;;;;;;;;;;;;;;;20.71;80.50;100960.22;7291497;19;151714;-52
2021/09/29 00:51:09;;;;;;;;;;;;;;;20.70;80.16;100958.56;7287762;19;153259;-52
2021/09/29 00:53:37;;;;;;;;;;;;;;;20.72;80.06;100952.63;7289279;19;152365;-51
2021/09/29 00:56:04;;;;;;;;;;;;;;;20.69;80.55;100948.47;7288275;19;151920;-51
2021/09/29 00:58:31;;;;;;;;;;;;;;;20.68;80.34;100943.97;7285184;19;151804;-51
2021/09/29 01:00:58;;;;;;;;;;;;;;;20.69;80.33;100939.19;7288305;19;151828;-51
2021/09/29 01:03:26;;;;;;;;;;;;;;;20.68;80.58;100938.38;7288036;19;151833;-50
2021/09/29 01:05:57;;;;;;;;;;;;;;;20.67;80.42;100947.94;7287027;19;154219;-51
2021/09/29 01:08:28;;;;;;;;;;;;;;;20.66;80.23;100956.69;7286573;19;152098;-51
2021/09/29 01:10:59;;;;;;;;;;;;;;;20.65;80.01;100964.25;7291255;19;155207;-51
2021/09/29 01:13:29;;;;;;;;;;;;;;;20.64;80.16;100965.41;7285833;19;152213;-51
2021/09/29 01:15:58;;;;;;;;;;;;;;;20.66;80.48;100981.94;7287057;19;152842;-51
2021/09/29 01:18:28;;;;;;;;;;;;;;;20.65;80.50;100989.53;7287025;19;154048;-49
2021/09/29 01:20:58;;;;;;;;;;;;;;;20.64;80.54;100992.63;7287430;19;151799;-50
2021/09/29 01:23:28;;;;;;;;;;;;;;;20.65;80.32;101000.75;7288179;19;153218;-51
2021/09/29 01:25:58;;;;;;;;;;;;;;;20.62;80.80;101000.56;7286850;19;153907;-51
2021/09/29 01:28:28;;;;;;;;;;;;;;;20.63;80.72;100989.00;7286792;19;152175;-50
2021/09/29 01:30:56;;;;;;;;;;;;;;;20.60;80.63;100992.44;7284878;19;153132;-52
2021/09/29 01:33:24;;;;;;;;;;;;;;;20.59;80.91;100993.56;7294265;19;151632;-50
2021/09/29 01:35:51;;;;;;;;;;;;;;;20.61;80.70;100991.28;7284481;19;153181;-50
2021/09/29 01:38:18;;;;;;;;;;;;;;;20.63;80.91;100990.97;7282574;19;153996;-51
2021/09/29 01:40:45;;;;;;;;;;;;;;;20.63;80.92;101007.81;7287710;19;151682;-53
2021/09/29 01:43:12;;;;;;;;;;;;;;;20.60;81.08;100995.22;7284896;19;153003;-53
2021/09/29 01:45:42;;;;;;;;;;;;;;;20.63;80.93;101003.03;7280471;19;154228;-51
2021/09/29 01:48:10;;;;;;;;;;;;;;;20.63;80.82;100996.56;7283438;19;152344;-50
2021/09/29 01:50:37;;;;;;;;;;;;;;;20.60;80.74;100986.81;7282235;19;152508;-51
2021/09/29 01:53:04;;;;;;;;;;;;;;;20.58;80.61;100980.66;7293303;19;154082;-51
2021/09/29 01:55:31;;;;;;;;;;;;;;;20.62;80.92;100987.34;7284282;19;153319;-51
2021/09/29 01:57:59;;;;;;;;;;;;;;;20.59;81.09;101001.16;7285354;19;153693;-51
2021/09/29 02:00:26;;;;;;;;;;;;;;;20.58;81.00;101005.94;7286426;19;152054;-51
2021/09/29 02:02:55;;;;;;;;;;;;;;;20.59;81.00;101012.38;7286673;19;151850;-51
2021/09/29 02:05:26;;;;;;;;;;;;;;;20.60;81.24;101008.44;7284955;19;154150;-50
2021/09/29 02:07:54;;;;;;;;;;;;;;;20.57;81.23;101017.47;7284280;19;151541;-51
2021/09/29 02:10:21;;;;;;;;;;;;;;;20.55;80.95;101017.78;7282869;19;152880;-51
2021/09/29 02:12:48;;;;;;;;;;;;;;;20.55;80.60;101022.56;7285521;19;153219;-51
2021/09/29 02:15:15;;;;;;;;;;;;;;;20.57;81.01;101023.09;7294480;19;151440;-51
2021/09/29 02:17:42;;;;;;;;;;;;;;;20.56;80.52;101022.25;7284728;19;153282;-51
2021/09/29 02:20:09;;;;;;;;;;;;;;;20.52;80.89;101029.63;7286652;19;151802;-51
2021/09/29 02:22:37;;;;;;;;;;;;;;;20.52;80.86;101026.81;7283456;19;152013;-51
2021/09/29 02:25:05;;;;;;;;;;;;;;;20.54;80.70;101037.72;7285555;19;153216;-51
2021/09/29 02:27:32;;;;;;;;;;;;;;;20.53;80.89;101034.09;7285606;19;152084;-51
2021/09/29 02:29:59;;;;;;;;;;;;;;;20.50;81.01;101034.69;7283289;19;152603;-51
2021/09/29 02:32:26;;;;;;;;;;;;;;;20.50;80.96;101034.69;7283416;19;153719;-51
2021/09/29 02:34:53;;;;;;;;;;;;;;;20.49;81.14;101040.63;7285885;19;151781;-51
2021/09/29 02:37:20;;;;;;;;;;;;;;;20.49;80.60;101041.44;7291942;19;152632;-51
2021/09/29 02:39:47;;;;;;;;;;;;;;;20.49;80.92;101040.63;7285262;19;151775;-51
2021/09/29 02:42:14;;;;;;;;;;;;;;;20.49;80.54;101044.25;7284905;19;151615;-51
2021/09/29 02:44:41;;;;;;;;;;;;;;;20.49;80.49;101054.69;7278427;19;153305;-51
2021/09/29 02:47:08;;;;;;;;;;;;;;;20.48;80.41;101053.00;7280967;19;151856;-51
2021/09/29 02:49:35;;;;;;;;;;;;;;;20.44;80.44;101061.19;7281782;19;152691;-52
2021/09/29 02:52:02;;;;;;;;;;;;;;;20.44;80.55;101058.41;7280836;19;153776;-51
2021/09/29 02:54:29;;;;;;;;;;;;;;;20.43;80.90;101073.56;7284352;19;151938;-51
2021/09/29 02:56:56;;;;;;;;;;;;;;;20.41;80.69;101067.41;7286419;19;152870;-51
2021/09/29 02:59:23;;;;;;;;;;;;;;;20.41;80.47;101073.03;7293146;19;153766;-51
2021/09/29 03:01:50;;;;;;;;;;;;;;;20.41;80.84;101075.81;7293260;19;152958;-51
2021/09/29 03:04:17;;;;;;;;;;;;;;;20.38;80.66;101080.09;7290468;19;153089;-51
2021/09/29 03:06:44;;;;;;;;;;;;;;;20.37;80.56;101080.38;7289983;19;152793;-50
2021/09/29 03:09:11;;;;;;;;;;;;;;;20.35;80.65;101083.47;7292389;19;153559;-51
2021/09/29 03:11:38;;;;;;;;;;;;;;;20.35;80.99;101089.09;7288257;19;153302;-50
2021/09/29 03:14:05;;;;;;;;;;;;;;;20.33;80.71;101077.34;7292023;19;151968;-51
2021/09/29 03:16:32;;;;;;;;;;;;;;;20.34;80.81;101095.03;7291990;19;152707;-51
2021/09/29 03:19:00;;;;;;;;;;;;;;;20.36;80.45;101092.75;7289141;19;153759;-51
2021/09/29 03:21:27;;;;;;;;;;;;;;;20.34;80.81;101097.84;7297380;19;152442;-52
2021/09/29 03:23:54;;;;;;;;;;;;;;;20.32;80.91;101106.53;7288524;19;153760;-51
2021/09/29 03:26:21;;;;;;;;;;;;;;;20.31;80.90;101098.41;7291389;19;151719;-51
2021/09/29 03:28:48;;;;;;;;;;;;;;;20.28;80.62;101104.63;7291886;19;153095;-51
2021/09/29 03:31:15;;;;;;;;;;;;;;;20.27;80.96;101106.59;7287773;19;153757;-50
2021/09/29 03:33:42;;;;;;;;;;;;;;;20.27;80.79;101122.59;7291572;19;151778;-51
2021/09/29 03:36:09;;;;;;;;;;;;;;;20.25;80.88;101120.09;7291689;19;153303;-51
2021/09/29 03:38:36;;;;;;;;;;;;;;;20.26;80.72;101126.56;7288352;19;154061;-50
2021/09/29 03:41:03;;;;;;;;;;;;;;;20.25;80.66;101134.13;7299277;19;151954;-51
2021/09/29 03:43:30;;;;;;;;;;;;;;;20.25;80.73;101136.09;7290676;19;153312;-51
2021/09/29 03:45:57;;;;;;;;;;;;;;;20.22;80.81;101136.69;7291763;19;151974;-52
2021/09/29 03:48:24;;;;;;;;;;;;;;;20.22;80.59;101143.13;7291709;19;153058;-51
2021/09/29 03:50:51;;;;;;;;;;;;;;;20.22;80.43;101159.13;7288528;19;156119;-52
2021/09/29 03:53:18;;;;;;;;;;;;;;;20.21;80.63;101154.69;7290785;19;151688;-51
2021/09/29 03:55:45;;;;;;;;;;;;;;;20.22;80.72;101154.34;7289630;19;151787;-51
2021/09/29 03:58:12;;;;;;;;;;;;;;;20.20;80.47;101159.44;7288187;19;153400;-51
2021/09/29 04:00:39;;;;;;;;;;;;;;;20.21;80.43;101168.69;7291003;19;151927;-51
2021/09/29 04:03:07;;;;;;;;;;;;;;;20.20;80.24;101167.03;7297847;19;152774;-50
2021/09/29 04:05:34;;;;;;;;;;;;;;;20.20;80.81;101175.44;7291260;19;152055;-51
2021/09/29 04:08:01;;;;;;;;;;;;;;;20.19;80.57;101174.59;7289949;19;153555;-51
2021/09/29 04:10:28;;;;;;;;;;;;;;;20.18;80.52;101184.16;7287028;19;153315;-50
2021/09/29 04:12:55;;;;;;;;;;;;;;;20.18;80.76;101200.16;7289746;19;151682;-51
2021/09/29 04:15:22;;;;;;;;;;;;;;;20.16;80.74;101194.84;7290323;19;153475;-51
2021/09/29 04:17:49;;;;;;;;;;;;;;;20.17;80.55;101202.09;7286804;19;154202;-51
2021/09/29 04:20:16;;;;;;;;;;;;;;;20.17;80.52;101196.50;7289896;19;151699;-51
2021/09/29 04:22:43;;;;;;;;;;;;;;;20.17;80.26;101201.31;7289974;19;153782;-50
2021/09/29 04:25:11;;;;;;;;;;;;;;;20.17;80.63;101212.53;7294193;19;154267;-51
2021/09/29 04:27:38;;;;;;;;;;;;;;;20.16;80.59;101213.66;7289826;19;153286;-50
2021/09/29 04:30:05;;;;;;;;;;;;;;;20.16;80.52;101210.84;7288397;19;154281;-51
2021/09/29 04:32:33;;;;;;;;;;;;;;;20.15;80.81;101211.97;7289866;19;151559;-51
2021/09/29 04:35:00;;;;;;;;;;;;;;;20.16;80.69;101219.25;7288764;19;152142;-51
2021/09/29 04:37:27;;;;;;;;;;;;;;;20.17;80.90;101223.75;7286673;19;152758;-50
2021/09/29 04:39:54;;;;;;;;;;;;;;;20.15;80.51;101237.22;7287901;19;151604;-51
2021/09/29 04:42:21;;;;;;;;;;;;;;;20.13;80.84;101237.50;7288705;19;152623;-50
2021/09/29 04:44:48;;;;;;;;;;;;;;;20.13;80.63;101234.69;7289250;19;153279;-51
2021/09/29 04:47:15;;;;;;;;;;;;;;;20.13;80.46;101240.31;7297430;19;152320;-51
2021/09/29 04:49:42;;;;;;;;;;;;;;;20.11;80.68;101248.22;7286039;19;153505;-51
2021/09/29 04:52:09;;;;;;;;;;;;;;;20.12;80.40;101246.25;7286710;19;151760;-51
2021/09/29 04:54:36;;;;;;;;;;;;;;;20.12;80.22;101252.69;7287262;19;153644;-51
2021/09/29 04:57:03;;;;;;;;;;;;;;;20.10;80.16;101249.34;7285161;19;152244;-52
2021/09/29 04:59:30;;;;;;;;;;;;;;;20.08;80.21;101260.00;7286308;19;152030;-52
2021/09/29 05:01:57;;;;;;;;;;;;;;;20.07;80.07;101263.13;7288267;19;153584;-51
2021/09/29 05:04:25;;;;;;;;;;;;;;;20.07;80.38;101258.38;7288560;19;153268;-52
2021/09/29 05:06:53;;;;;;;;;;;;;;;20.03;79.82;101268.50;7289467;19;152106;-51
2021/09/29 05:09:20;;;;;;;;;;;;;;;20.04;79.81;101280.53;7293369;19;152079;-51
2021/09/29 05:11:50;;;;;;;;;;;;;;;20.02;79.86;101280.84;7285448;19;151971;-51
2021/09/29 05:14:17;;;;;;;;;;;;;;;20.03;79.84;101273.28;7288757;19;152715;-51
2021/09/29 05:16:44;;;;;;;;;;;;;;;20.01;80.14;101281.13;7287365;19;152308;-51
2021/09/29 05:19:11;;;;;;;;;;;;;;;20.00;79.76;101280.31;7288790;19;151921;-51
2021/09/29 05:21:38;;;;;;;;;;;;;;;20.02;80.17;101291.22;7287883;19;153221;-51
2021/09/29 05:24:05;;;;;;;;;;;;;;;20.02;79.79;101294.88;7285918;19;153397;-51
2021/09/29 05:26:32;;;;;;;;;;;;;;;20.08;79.62;101290.88;7287629;19;151424;-51
2021/09/29 05:29:00;;;;;;;;;;;;;;;20.13;80.20;101296.41;7288613;19;153175;-51
2021/09/29 05:31:27;;;;;;;;;;;;;;;20.17;79.81;101294.69;7291028;19;152701;-51
2021/09/29 05:33:55;;;;;;;;;;;;;;;20.22;80.24;101302.22;7286403;19;152163;-51
2021/09/29 05:36:22;;;;;;;;;;;;;;;20.26;80.37;101308.94;7286735;19;152499;-51
2021/09/29 05:38:49;;;;;;;;;;;;;;;20.29;80.81;101311.97;7288245;19;152080;-50
2021/09/29 05:41:16;;;;;;;;;;;;;;;20.35;80.77;101312.78;7286186;19;153375;-51
2021/09/29 05:43:43;;;;;;;;;;;;;;;20.40;81.12;101321.97;7286420;19;154164;-51
2021/09/29 05:46:10;;;;;;;;;;;;;;;20.45;80.62;101314.59;7288081;19;151671;-50
2021/09/29 05:48:37;;;;;;;;;;;;;;;20.50;80.08;101315.38;7287477;19;154069;-51
2021/09/29 05:51:04;;;;;;;;;;;;;;;20.55;80.67;101329.38;7293550;19;154413;-50
2021/09/29 05:53:34;;;;;;;;;;;;;;;20.63;80.47;101330.66;7285822;19;153874;-51
2021/09/29 05:56:01;;;;;;;;;;;;;;;20.67;80.36;101338.19;7284884;19;153305;-51
2021/09/29 05:58:28;;;;;;;;;;;;;;;20.74;79.88;101329.41;7286187;19;151720;-51
2021/09/29 06:00:55;;;;;;;;;;;;;;;20.79;80.11;101338.63;7287352;19;152606;-51
2021/09/29 06:03:22;;;;;;;;;;;;;;;20.85;79.96;101342.16;7284111;19;154838;-51
2021/09/29 06:05:49;;;;;;;;;;;;;;;20.92;79.47;101345.47;7287277;19;151798;-51
2021/09/29 06:08:17;;;;;;;;;;;;;;;20.99;79.06;101356.31;7286705;19;152706;-50
2021/09/29 06:10:44;;;;;;;;;;;;;;;21.06;79.24;101356.78;7286171;19;153842;-51
2021/09/29 06:13:11;;;;;;;;;;;;;;;21.12;78.46;101361.22;7292386;19;152068;-50
2021/09/29 06:15:41;;;;;;;;;;;;;;;21.18;78.59;101366.47;7286833;19;153554;-53
2021/09/29 06:18:13;;;;;;;;;;;;;;;21.28;79.15;101376.75;7285987;19;151538;-50
2021/09/29 06:20:43;;;;;;;;;;;;;;;21.36;78.03;101387.28;7287151;19;153554;-51
2021/09/29 06:23:10;;;;;;;;;;;;;;;21.40;77.30;101393.97;7283179;19;152704;-51
2021/09/29 06:25:37;;;;;;;;;;;;;;;21.44;76.92;101397.03;7285226;19;152660;-50
2021/09/29 06:28:04;;;;;;;;;;;;;;;21.49;75.99;101396.94;7286424;19;153177;-51
2021/09/29 06:30:32;;;;;;;;;;;;;;;21.53;74.62;101409.28;7283488;19;154112;-51
2021/09/29 06:32:59;;;;;;;;;;;;;;;21.55;74.33;101405.00;7287510;19;151535;-51
2021/09/29 06:35:28;;;;;;;;;;;;;;;21.55;73.43;101409.78;7299219;19;152187;-51
2021/09/29 06:37:59;;;;;;;;;;;;;;;21.61;73.12;101417.88;7293695;19;152515;-51
2021/09/29 06:40:26;;;;;;;;;;;;;;;21.65;73.37;101423.72;7290701;19;152104;-51
2021/09/29 06:42:53;;;;;;;;;;;;;;;21.67;72.61;101415.78;7290158;19;154051;-51
2021/09/29 06:45:20;;;;;;;;;;;;;;;21.66;71.98;101414.97;7289944;19;151798;-51
2021/09/29 06:47:49;;;;;;;;;;;;;;;21.71;72.38;101428.94;7291152;19;151912;-51
2021/09/29 06:50:17;;;;;;;;;;;;;;;21.76;71.95;101427.22;7291497;19;152949;-52
2021/09/29 06:52:53;;;;;;;;;;;;;;;21.76;71.99;101430.81;7290266;19;151868;-51
2021/09/29 06:55:21;;;;;;;;;;;;;;;21.78;71.47;101438.97;7290599;19;153089;-51
2021/09/29 06:57:48;;;;;;;;;;;;;;;21.79;70.95;101441.50;7297931;19;154053;-52
2021/09/29 07:00:15;;;;;;;;;;;;;;;21.80;71.16;101431.91;7291814;19;152756;-51
2021/09/29 07:02:44;;;;;;;;;;;;;;;21.81;70.83;101443.97;7289553;19;153836;-51
2021/09/29 07:05:13;;;;;;;;;;;;;;;21.82;70.57;101448.47;7292429;19;151895;-51
2021/09/29 07:07:40;;;;;;;;;;;;;;;21.78;70.51;101451.06;7289393;19;152053;-51
2021/09/29 07:10:08;;;;;;;;;;;;;;;21.78;70.09;101448.25;7291537;19;153401;-51
2021/09/29 07:12:37;;;;;;;;;;;;;;;21.76;69.32;101452.53;7290505;19;152766;-51
2021/09/29 07:15:04;;;;;;;;;;;;;;;21.74;69.52;101455.63;7290463;19;151751;-51
2021/09/29 07:17:32;;;;;;;;;;;;;;;21.73;69.78;101462.38;7288727;19;153401;-51
2021/09/29 07:19:59;;;;;;;;;;;;;;;21.76;69.45;101458.16;7299378;19;151711;-51
2021/09/29 07:22:26;;;;;;;;;;;;;;;21.67;66.18;101466.41;7290803;19;153616;-51
2021/09/29 07:24:55;;;;;;;;;;;;;;;21.18;49.42;101476.06;7290675;19;151934;-51
2021/09/29 07:27:22;;;;;;;;;;;;;;;21.24;48.84;101476.84;7291518;19;152642;-51
2021/09/29 07:29:49;;;;;;;;;;;;;;;21.05;48.44;101476.78;7290531;19;153937;-51
2021/09/29 07:32:16;;;;;;;;;;;;;;;20.83;48.32;101487.69;7286371;19;152255;-51
2021/09/29 07:34:43;;;;;;;;;;;;;;;20.40;48.16;101489.50;7291539;19;153034;-51
2021/09/29 07:37:10;;;;;;;;;;;;;;;19.98;48.71;101495.75;7290384;19;153808;-51
2021/09/29 07:39:37;;;;;;;;;;;;;;;19.61;49.62;101493.44;7290604;19;151560;-51
2021/09/29 07:42:04;;;;;;;;;;;;;;;19.49;49.20;101496.56;7296305;19;152735;-51
2021/09/29 07:44:31;;;;;;;;;;;;;;;19.62;50.22;101497.09;7285938;19;152546;-53
2021/09/29 07:46:58;;;;;;;;;;;;;;;19.98;53.58;101509.75;7290661;19;152150;-51
2021/09/29 07:49:25;;;;;;;;;;;;;;;20.16;53.61;101508.22;7288363;19;153885;-52
2021/09/29 07:51:52;;;;;;;;;;;;;;;20.27;53.14;101516.25;7275521;19;152570;-51
2021/09/29 07:54:19;;;;;;;;;;;;;;;20.35;53.69;101517.66;7287750;19;152439;-52
2021/09/29 07:56:46;;;;;;;;;;;;;;;20.40;54.17;101521.22;7288013;19;152023;-51
2021/09/29 07:59:13;;;;;;;;;;;;;;;20.44;54.68;101529.09;7288952;19;152653;-51
2021/09/29 08:01:40;;;;;;;;;;;;;;;20.46;54.70;101524.00;7296541;19;153347;-50
2021/09/29 08:04:08;;;;;;;;;;;;;;;20.51;54.76;101523.97;7289983;19;152294;-50
2021/09/29 08:06:35;;;;;;;;;;;;;;;20.53;55.23;101533.78;7287171;19;152444;-51
2021/09/29 08:09:03;;;;;;;;;;;;;;;20.56;55.26;101538.78;7289488;19;154143;-51
2021/09/29 08:11:30;;;;;;;;;;;;;;;20.57;55.82;101540.47;7289429;19;152168;-51
2021/09/29 08:13:57;;;;;;;;;;;;;;;20.61;56.03;101544.38;7290126;19;154212;-51
2021/09/29 08:16:24;;;;;;;;;;;;;;;20.64;56.07;101540.13;7289210;19;153207;-51
2021/09/29 08:18:51;;;;;;;;;;;;;;;20.68;58.39;101539.22;7289677;19;151827;-51
2021/09/29 08:21:23;;;;;;;;;;;;;;;20.69;60.73;101540.91;7289035;19;153389;-51
2021/09/29 08:23:53;;;;;;;;;;;;;;;20.72;59.99;101548.75;7296046;19;153974;-51
2021/09/29 08:31:50;;;;;;;;;;;;;;;20.70;59.54;101567.88;7288728;19;151638;-51
2021/09/29 08:34:20;;;;;;;;;;;;;;;20.71;59.32;101566.75;7286947;19;152708;-51
2021/09/29 08:39:29;;;;;;;;;;;;;;;20.72;59.12;101581.59;7288543;19;152116;-50
2021/09/29 08:42:05;;;;;;;;;;;;;;;20.73;58.93;101583.28;7288330;19;153459;-51
2021/09/29 08:52:13;;;;;;;;;;;;;;;20.73;57.95;101600.97;7286731;19;152005;-51
2021/09/29 09:17:28;;;;;;;;;;;;;;;20.68;57.70;101634.72;7285933;19;153113;-52
2021/09/29 09:20:06;;;;;;;;;;;;;;;20.67;57.58;101637.84;7288752;19;151743;-51
2021/09/29 09:22:33;;;;;;;;;;;;;;;20.66;57.79;101636.16;7285901;19;154382;-52
2021/09/29 09:25:00;;;;;;;;;;;;;;;20.68;57.87;101647.91;7287637;19;154075;-53
2021/09/29 09:27:37;;;;;;;;;;;;;;;20.66;57.53;101641.75;7285851;19;151730;-51
2021/09/29 09:30:04;;;;;;;;;;;;;;;20.68;57.63;101636.69;7286972;19;153110;-51
2021/09/29 09:32:39;;;;;;;;;;;;;;;20.65;58.10;101640.91;7292091;19;152699;-50
2021/09/29 09:35:09;;;;;;;;;;;;;;;20.67;57.82;101649.06;7287610;19;152572;-50
2021/09/29 09:37:37;;;;;;;;;;;;;;;20.65;57.52;101645.69;7286390;19;153342;-51
2021/09/29 09:40:06;;;;;;;;;;;;;;;20.67;57.65;101646.25;7285153;19;152628;-52
2021/09/29 09:42:36;;;;;;;;;;;;;;;20.67;57.74;101644.25;7284978;19;153548;-51
2021/09/29 09:45:04;;;;;;;;;;;;;;;20.67;57.86;101658.28;7284945;19;153255;-51
2021/09/29 09:47:37;;;;;;;;;;;;;;;20.67;57.86;101654.69;7286576;19;151574;-51
2021/09/29 09:50:04;;;;;;;;;;;;;;;20.66;57.40;101656.63;7287036;19;153303;-51
2021/09/29 09:52:34;;;;;;;;;;;;;;;20.65;57.34;101663.38;7283385;19;152604;-50
2021/09/29 09:55:04;;;;;;;;;;;;;;;20.67;57.38;101669.53;7290924;19;154764;-51
2021/09/29 09:57:33;;;;;;;;;;;;;;;20.66;57.45;101672.66;7283323;19;154001;-51
2021/09/29 10:00:00;;;;;;;;;;;;;;;20.66;57.55;101676.31;7282862;19;152377;-51
2021/09/29 10:02:36;;;;;;;;;;;;;;;20.67;57.75;101682.75;7284672;19;153034;-53
2021/09/29 10:05:04;;;;;;;;;;;;;;;20.65;57.18;101693.44;7283573;19;152324;-52
2021/09/29 10:07:31;;;;;;;;;;;;;;;20.64;57.03;101678.53;7284025;19;152159;-53
2021/09/29 10:10:03;;;;;;;;;;;;;;;20.61;56.86;101681.94;7284586;19;152683;-52
2021/09/29 10:27:41;;;;;;;;;;;;;;;20.65;56.56;101699.88;7286204;19;151830;-52
2021/09/29 10:30:11;;;;;;;;;;;;;;;20.65;56.79;101718.69;7285544;19;152330;-52
2021/09/29 10:32:42;;;;;;;;;;;;;;;20.62;56.72;101706.09;7279715;19;154342;-52
2021/09/29 10:40:30;;;;;;;;;;;;;;;20.62;56.60;101725.75;7284996;19;151687;-53
2021/09/29 10:45:36;;;;;;;;;;;;;;;20.65;56.81;101727.13;7281744;19;154248;-53
2021/09/29 11:33:33;;;;;;;;;;;;;;;20.57;56.76;101795.97;7287774;19;153411;-53
2021/09/29 11:49:05;;;;;;;;;;;;;;;20.58;54.57;101819.28;7287332;19;152256;-52
2021/09/29 12:11:28;;;;;;;;;;;;;;;20.66;54.05;101830.75;7287674;19;152680;-52
2021/09/29 12:16:26;;;;;;;;;;;;;;;20.67;54.05;101846.44;7288717;19;152123;-52
2021/09/29 12:18:56;;;;;;;;;;;;;;;20.73;53.45;101850.06;7289175;19;151982;-52
2021/09/29 12:21:26;;;;;;;;;;;;;;;20.80;53.78;101850.63;7288106;19;153781;-52
2021/09/29 12:23:53;;;;;;;;;;;;;;;20.87;53.85;101856.75;7287960;19;151905;-52
2021/09/29 12:31:41;;;;;;;;;;;;;;;20.91;52.79;101854.19;7287956;19;153653;-52
2021/09/29 12:34:21;;;;;;;;;;;;;;;20.92;52.64;101859.53;7287025;19;153299;-52
2021/09/29 12:36:48;;;;;;;;;;;;;;;20.95;52.41;101870.19;7290034;19;151705;-52
2021/09/29 12:39:18;;;;;;;;;;;;;;;21.01;52.74;101862.56;7289055;19;153532;-52
2021/09/29 12:41:48;;;;;;;;;;;;;;;20.99;52.88;101864.81;7286699;19;154029;-52
2021/09/29 12:44:16;;;;;;;;;;;;;;;20.96;52.31;101869.06;7287866;19;151739;-53
2021/09/29 12:46:49;;;;;;;;;;;;;;;20.99;52.83;101864.81;7288858;19;152526;-52
2021/09/29 12:49:20;;;;;;;;;;;;;;;21.01;53.03;101862.56;7288744;19;153527;-52
2021/09/29 12:54:21;;;;;;;;;;;;;;;20.98;52.44;101874.41;7283351;19;153222;-53
2021/09/29 12:56:48;;;;;;;;;;;;;;;20.94;52.30;101876.91;7288607;19;152002;-52
2021/09/29 12:59:15;;;;;;;;;;;;;;;20.98;52.50;101871.59;7283424;19;153008;-52
2021/09/29 13:01:43;;;;;;;;;;;;;;;20.97;52.18;101876.38;7288402;19;154292;-52
2021/09/29 13:04:10;;;;;;;;;;;;;;;21.00;52.74;101878.59;7286456;19;151707;-50
2021/09/29 13:06:37;;;;;;;;;;;;;;;21.01;52.71;101885.91;7286445;19;153626;-51
2021/09/29 13:09:04;;;;;;;;;;;;;;;21.03;52.77;101886.44;7285636;19;153290;-51
2021/09/29 13:11:32;;;;;;;;;;;;;;;21.05;52.66;101888.97;7287079;19;152417;-50
2021/09/29 13:13:59;;;;;;;;;;;;;;;21.06;51.93;101891.50;7294033;19;152823;-50
2021/09/29 13:16:27;;;;;;;;;;;;;;;21.06;51.73;101897.13;7288492;19;151788;-50
2021/09/29 13:19:01;;;;;;;;;;;;;;;21.09;51.38;101890.91;7286711;19;153905;-52
2021/09/29 13:38:59;;;;;;;;;;;;;;;21.04;51.48;101919.03;7286815;19;153734;-51
2021/09/29 13:41:26;;;;;;;;;;;;;;;21.04;51.97;101912.56;7284190;19;153885;-53
2021/09/29 13:43:53;;;;;;;;;;;;;;;21.04;52.17;101913.41;7286792;19;151799;-51
2021/09/29 13:46:20;;;;;;;;;;;;;;;21.07;50.88;101920.44;7287325;19;152903;-52
2021/09/29 13:48:50;;;;;;;;;;;;;;;21.05;51.77;101926.34;7286807;19;154035;-51
2021/09/29 13:51:18;;;;;;;;;;;;;;;21.04;51.53;101926.63;7283640;19;151758;-51
2021/09/29 13:53:45;;;;;;;;;;;;;;;21.03;51.42;101927.75;7287203;19;154088;-51
2021/09/29 13:56:14;;;;;;;;;;;;;;;20.98;52.03;101934.25;7286390;19;154140;-51
2021/09/29 14:31:17;;;;;;;;;;;;;;;21.05;52.47;101959.22;7281049;19;151917;-51
2021/09/29 14:33:48;;;;;;;;;;;;;;;21.05;53.27;101962.00;7282476;19;153449;-51
2021/09/29 14:36:16;;;;;;;;;;;;;;;21.10;52.64;101974.09;7284253;19;153075;-51
2021/09/29 14:38:45;;;;;;;;;;;;;;;21.12;52.47;101966.19;7284384;19;152361;-50
2021/09/29 14:41:12;;;;;;;;;;;;;;;21.12;52.84;101971.81;7290169;19;152970;-52
2021/09/29 14:43:39;;;;;;;;;;;;;;;21.11;52.19;101972.13;7284540;19;151783;-52
2021/09/29 14:46:07;;;;;;;;;;;;;;;21.09;52.47;101980.81;7283202;19;153454;-51
2021/09/29 14:48:35;;;;;;;;;;;;;;;21.09;52.27;101983.63;7285056;19;154846;-51
2021/09/29 14:51:06;;;;;;;;;;;;;;;21.09;52.65;101991.22;7286619;19;151835;-52
2021/09/29 14:53:34;;;;;;;;;;;;;;;21.08;52.54;101995.16;7286444;19;153973;-51
2021/09/29 14:56:02;;;;;;;;;;;;;;;21.05;52.45;102002.19;7289000;19;153495;-51
2021/09/29 14:58:29;;;;;;;;;;;;;;;21.05;52.26;102009.78;7290927;19;152041;-51
2021/09/29 15:00:56;;;;;;;;;;;;;;;21.05;52.66;102013.44;7288246;19;152627;-51
2021/09/29 15:03:24;;;;;;;;;;;;;;;21.08;52.60;102020.44;7296646;19;154163;-52
2021/09/29 15:05:53;;;;;;;;;;;;;;;21.08;52.19;102026.91;7291122;19;153514;-52
2021/09/29 15:08:20;;;;;;;;;;;;;;;21.09;52.78;102027.75;7289416;19;153831;-52
2021/09/29 15:10:47;;;;;;;;;;;;;;;21.06;52.30;102029.19;7292184;19;152214;-51
2021/09/29 15:13:17;;;;;;;;;;;;;;;21.05;52.51;102023.84;7290839;19;152620;-52
2021/09/29 15:18:21;;;;;;;;;;;;;;;21.02;53.02;102030.88;7292061;19;151833;-52
2021/09/29 15:48:30;;;;;;;;;;;;;;;20.98;52.94;102059.84;7296348;19;153075;-51
2021/09/29 15:56:03;;;;;;;;;;;;;;;20.90;53.27;102057.59;7286976;19;154298;-52
2021/09/29 16:01:07;;;;;;;;;;;;;;;20.85;53.37;102067.72;7284175;19;153460;-52
2021/09/29 16:11:26;;;;;;;;;;;;;;;20.83;53.96;102075.59;7295601;19;153334;-52
2021/09/29 16:31:23;;;;;;;;;;;;;;;20.74;53.90;102104.53;7295841;19;154218;-52
2021/09/29 16:33:54;;;;;;;;;;;;;;;20.77;53.50;102098.34;7289737;19;153174;-52
2021/09/29 16:36:21;;;;;;;;;;;;;;;20.72;53.53;102115.19;7286249;19;154054;-52
2021/09/29 16:38:49;;;;;;;;;;;;;;;20.74;53.14;102116.59;7288222;19;152218;-52
2021/09/29 16:41:17;;;;;;;;;;;;;;;20.74;52.68;102115.75;7287352;19;153223;-51
2021/09/29 16:43:45;;;;;;;;;;;;;;;20.73;53.24;102119.69;7286829;19;152645;-52
2021/09/29 16:46:14;;;;;;;;;;;;;;;20.74;53.28;102119.41;7288307;19;152046;-52
2021/09/29 16:48:42;;;;;;;;;;;;;;;20.71;53.32;102121.94;7287849;19;151898;-51
2021/09/29 16:54:03;;;;;;;;;;;;;;;20.68;53.21;102143.00;7294914;19;151874;-52
2021/09/29 16:56:32;;;;;;;;;;;;;;;20.65;53.12;102135.16;7283689;19;152647;-51
2021/09/29 16:59:03;;;;;;;;;;;;;;;20.65;53.42;102148.34;7285931;19;151553;-52
2021/09/29 17:01:31;;;;;;;;;;;;;;;20.66;53.64;102147.22;7285675;19;152990;-52